Amelia City, Florida
Current Conditions -  °F | °C
As of 5:15 PM on Saturday 25 Oct 2014 (Local Time) from KFHB Reporting Station
Clear Clear  
Wind Chill: 77°   Ceiling: Unl
Heat Index: 78°   Visibility: 10mi
Dew Point: 52°   Wind: 6mph
Humidity: 41%   Direction: 70°ENE
Pressure: 29.95"   Gusts: NA
Location:  30.6056°N, 81.5268°W
Report Text: KFHB 252115Z AUTO 07005KT 10SM CLR 25/11 A2995 RMK AO1
Loading
Personal Weather Stations






























Interactive Weather Map New forecast layout! Learn more

10-Day Weather Forecast

Advertisements
Track Severe Weather on mobile